Time;durP1;ratioP1;P1;durP2;ratioP2;P2;SDS_P1;SDS_P2;PMS_P1;PMS_P2;Temp;Humidity;BMP_temperature;BMP_pressure;BME280_temperature;BME280_humidity;BME280_pressure;Samples;Min_cycle;Max_cycle;Signal;HPM_P1;HPM_P2
2022/01/26 00:06:35;;;;;;;72.10;23.63;;;;;;;;;;5030368;28;20028;-67
2022/01/26 00:09:03;;;;;;;74.25;24.77;;;;;;;;;;5042079;28;20037;-67
2022/01/26 00:11:31;;;;;;;72.25;24.80;;;;;;;;;;5013416;28;20104;-67
2022/01/26 00:13:58;;;;;;;76.50;24.45;;;;;;;;;;5023949;28;20045;-67
2022/01/26 00:16:34;;;;;;;77.03;25.52;;;;;;;;;;5036756;28;20171;-67
2022/01/26 00:19:01;;;;;;;71.13;23.42;;;;;;;;;;5047233;28;20568;-67
2022/01/26 00:21:40;;;;;;;73.80;23.90;;;;;;;;;;5020103;28;20034;-67
2022/01/26 00:29:08;;;;;;;78.18;25.52;;;;;;;;;;5025174;28;20048;-67
2022/01/26 00:40:20;;;;;;;84.47;24.83;;;;;;;;;;5024239;28;20059;-69
2022/01/26 00:42:48;;;;;;;90.25;25.10;;;;;;;;;;5032416;28;20155;-68
2022/01/26 00:45:13;;;;;;;87.25;26.10;;;;;;;;;;5032390;28;20026;-67
2022/01/26 00:47:38;;;;;;;86.00;25.27;;;;;;;;;;5039797;28;20111;-68
2022/01/26 00:50:09;;;;;;;84.72;26.50;;;;;;;;;;5019843;28;20034;-68
2022/01/26 00:52:51;;;;;;;92.80;27.00;;;;;;;;;;5024956;28;20578;-67
2022/01/26 00:55:18;;;;;;;88.00;26.58;;;;;;;;;;5018565;28;20132;-67
2022/01/26 00:57:44;;;;;;;87.22;25.52;;;;;;;;;;5043985;28;20029;-67
2022/01/26 01:00:14;;;;;;;85.32;26.40;;;;;;;;;;5028490;28;20124;-67
2022/01/26 01:02:39;;;;;;;78.05;25.23;;;;;;;;;;5014735;28;20041;-68
2022/01/26 01:05:18;;;;;;;89.82;25.35;;;;;;;;;;5022618;28;20103;-68
2022/01/26 01:07:45;;;;;;;82.03;26.17;;;;;;;;;;5016155;28;20068;-68
2022/01/26 01:10:11;;;;;;;85.93;26.50;;;;;;;;;;5027779;28;20065;-68
2022/01/26 01:12:42;;;;;;;92.57;27.48;;;;;;;;;;5011984;28;20080;-67
2022/01/26 01:15:07;;;;;;;86.10;26.92;;;;;;;;;;5012488;28;20056;-68
2022/01/26 01:17:39;;;;;;;93.88;26.90;;;;;;;;;;5025454;28;20505;-67
2022/01/26 01:20:17;;;;;;;81.07;25.95;;;;;;;;;;5014716;28;20076;-67
2022/01/26 01:28:14;;;;;;;91.72;27.33;;;;;;;;;;5041952;28;20037;-67
2022/01/26 01:30:43;;;;;;;88.13;26.25;;;;;;;;;;5030440;28;20033;-67
2022/01/26 01:33:14;;;;;;;89.28;27.00;;;;;;;;;;5029975;28;20037;-68
2022/01/26 01:35:42;;;;;;;87.28;27.45;;;;;;;;;;5027938;28;20026;-69
2022/01/26 01:38:16;;;;;;;90.78;26.98;;;;;;;;;;5019266;28;20041;-68
2022/01/26 01:40:47;;;;;;;99.13;28.60;;;;;;;;;;5028187;28;20176;-68
2022/01/26 01:43:13;;;;;;;;;;;;;;;;;;5030213;28;20029;-67
2022/01/26 01:45:48;;;;;;;98.95;27.10;;;;;;;;;;5026345;28;19920;-67
2022/01/26 01:48:19;;;;;;;90.78;27.48;;;;;;;;;;5030487;28;20139;-68
2022/01/26 01:50:47;;;;;;;99.15;27.42;;;;;;;;;;5026408;28;20063;-68
2022/01/26 01:53:16;;;;;;;92.00;27.08;;;;;;;;;;5024001;28;20038;-68
2022/01/26 01:55:50;;;;;;;89.25;27.23;;;;;;;;;;5018372;28;20046;-68
2022/01/26 01:58:17;;;;;;;93.30;27.65;;;;;;;;;;5031860;28;20092;-68
2022/01/26 02:00:43;;;;;;;101.18;28.55;;;;;;;;;;5015392;28;20037;-68
2022/01/26 02:03:08;;;;;;;97.57;29.77;;;;;;;;;;5027249;28;20033;-67
2022/01/26 02:05:34;;;;;;;102.13;28.98;;;;;;;;;;5025080;28;20029;-67
2022/01/26 02:07:59;;;;;;;93.75;27.85;;;;;;;;;;5018038;28;20040;-68
2022/01/26 02:10:25;;;;;;;92.43;27.42;;;;;;;;;;5011927;28;20030;-67
2022/01/26 02:12:57;;;;;;;97.00;28.35;;;;;;;;;;5011561;28;20395;-67
2022/01/26 02:15:29;;;;;;;95.88;28.45;;;;;;;;;;5013630;28;20054;-66
2022/01/26 02:18:15;;;;;;;97.45;28.25;;;;;;;;;;5011257;28;20495;-67
2022/01/26 02:51:06;;;;;;;91.70;28.40;;;;;;;;;;5027590;28;20048;-67
2022/01/26 02:56:21;;;;;;;99.80;28.10;;;;;;;;;;5033066;28;20104;-68
2022/01/26 03:01:42;;;;;;;95.68;29.60;;;;;;;;;;5032782;28;20425;-67
2022/01/26 03:09:17;;;;;;;93.68;28.17;;;;;;;;;;5015699;28;20026;-67
2022/01/26 03:11:45;;;;;;;98.93;28.80;;;;;;;;;;5023616;28;20025;-67
2022/01/26 03:14:26;;;;;;;90.35;27.75;;;;;;;;;;5029718;28;20108;-68
2022/01/26 03:16:58;;;;;;;97.03;28.17;;;;;;;;;;5026992;28;20046;-67
2022/01/26 03:19:42;;;;;;;106.55;29.13;;;;;;;;;;5013470;28;20045;-66
2022/01/26 03:35:29;;;;;;;101.95;28.58;;;;;;;;;;5020108;28;20038;-67
2022/01/26 03:37:56;;;;;;;109.65;31.38;;;;;;;;;;5021359;28;20036;-67
2022/01/26 03:40:30;;;;;;;100.80;29.67;;;;;;;;;;5026023;28;20088;-68
2022/01/26 03:42:59;;;;;;;102.68;30.88;;;;;;;;;;5032469;28;20049;-68
2022/01/26 03:45:26;;;;;;;111.32;30.48;;;;;;;;;;5030515;28;20475;-67
2022/01/26 03:47:51;;;;;;;99.68;28.80;;;;;;;;;;5061616;28;20033;-67
2022/01/26 03:50:17;;;;;;;111.28;31.83;;;;;;;;;;5017938;28;20029;-67
2022/01/26 03:52:42;;;;;;;118.20;31.67;;;;;;;;;;5014406;28;20033;-67
2022/01/26 03:55:08;;;;;;;103.85;29.58;;;;;;;;;;5026215;28;20517;-67
2022/01/26 03:57:33;;;;;;;116.05;33.58;;;;;;;;;;5045911;28;20028;-67
2022/01/26 03:59:59;;;;;;;113.40;32.30;;;;;;;;;;5042111;28;20029;-67
2022/01/26 04:02:24;;;;;;;104.40;29.70;;;;;;;;;;5017929;28;20125;-68
2022/01/26 04:04:56;;;;;;;110.03;29.08;;;;;;;;;;5027878;28;20052;-67
2022/01/26 04:07:21;;;;;;;113.47;32.47;;;;;;;;;;5027414;28;20075;-68
2022/01/26 04:09:47;;;;;;;114.40;32.63;;;;;;;;;;5013902;28;20374;-68
2022/01/26 04:12:12;;;;;;;120.28;33.78;;;;;;;;;;5017333;28;20053;-68
2022/01/26 04:14:38;;;;;;;112.85;31.00;;;;;;;;;;5022903;28;20434;-66
2022/01/26 04:17:04;;;;;;;102.78;29.83;;;;;;;;;;5031953;28;20103;-68
2022/01/26 04:19:33;;;;;;;104.30;29.73;;;;;;;;;;5025207;28;20045;-67
2022/01/26 04:22:17;;;;;;;116.20;31.90;;;;;;;;;;5018849;28;20435;-68
2022/01/26 04:24:50;;;;;;;114.18;32.75;;;;;;;;;;5031236;28;20025;-68
2022/01/26 04:29:41;;;;;;;118.20;31.45;;;;;;;;;;5014689;28;20166;-68
2022/01/26 04:32:08;;;;;;;111.53;29.73;;;;;;;;;;5034408;28;20025;-68
2022/01/26 04:34:34;;;;;;;89.53;27.90;;;;;;;;;;5031272;28;20117;-67
2022/01/26 04:39:35;;;;;;;98.28;29.27;;;;;;;;;;5044498;28;20116;-67
2022/01/26 04:42:44;;;;;;;99.32;28.10;;;;;;;;;;5020909;28;20084;-67
2022/01/26 04:45:02;;;;;;;103.03;29.73;;;;;;;;;;5019605;28;20045;-68
2022/01/26 04:47:27;;;;;;;96.93;28.50;;;;;;;;;;5030843;28;20029;-68
2022/01/26 04:49:53;;;;;;;85.55;25.30;;;;;;;;;;5030666;28;20053;-68
2022/01/26 04:52:18;;;;;;;93.93;29.02;;;;;;;;;;5032635;28;20065;-67
2022/01/26 04:54:44;;;;;;;94.22;28.42;;;;;;;;;;5023033;28;20383;-67
2022/01/26 04:57:09;;;;;;;92.53;28.33;;;;;;;;;;5016396;28;20034;-68
2022/01/26 04:59:34;;;;;;;97.75;29.45;;;;;;;;;;5013328;28;20030;-68
2022/01/26 05:02:00;;;;;;;97.80;29.05;;;;;;;;;;5026511;28;20116;-67
2022/01/26 05:04:25;;;;;;;96.78;28.95;;;;;;;;;;5030157;28;20801;-67
2022/01/26 05:06:51;;;;;;;99.38;29.67;;;;;;;;;;5029496;28;20040;-67
2022/01/26 05:09:19;;;;;;;93.45;28.63;;;;;;;;;;5028766;28;20033;-67
2022/01/26 05:11:47;;;;;;;96.30;28.40;;;;;;;;;;5020230;28;20030;-68
2022/01/26 05:14:12;;;;;;;99.85;30.02;;;;;;;;;;5012752;28;20105;-68
2022/01/26 05:16:38;;;;;;;95.90;28.38;;;;;;;;;;5019764;28;20164;-68
2022/01/26 05:19:05;;;;;;;99.45;26.70;;;;;;;;;;5030094;28;20041;-68
2022/01/26 05:21:30;;;;;;;99.00;29.15;;;;;;;;;;5022141;28;20033;-68
2022/01/26 05:23:56;;;;;;;104.60;28.30;;;;;;;;;;5029344;28;20037;-67
2022/01/26 05:26:22;;;;;;;87.85;26.35;;;;;;;;;;5018895;28;20063;-68
2022/01/26 05:28:47;;;;;;;95.70;27.80;;;;;;;;;;5022161;28;20086;-68
2022/01/26 05:31:13;;;;;;;80.47;23.00;;;;;;;;;;5013586;28;20499;-68
2022/01/26 05:33:39;;;;;;;77.75;24.00;;;;;;;;;;5028376;28;20040;-68
2022/01/26 05:36:05;;;;;;;96.22;28.00;;;;;;;;;;5015416;28;20038;-67
2022/01/26 05:38:30;;;;;;;100.75;29.25;;;;;;;;;;5020500;28;20091;-68
2022/01/26 05:40:58;;;;;;;88.78;25.95;;;;;;;;;;5017507;28;20042;-68
2022/01/26 05:43:24;;;;;;;89.93;26.55;;;;;;;;;;5012422;28;20033;-68
2022/01/26 05:45:53;;;;;;;87.22;25.17;;;;;;;;;;5026829;28;20055;-68
2022/01/26 05:48:19;;;;;;;86.03;26.02;;;;;;;;;;5038367;28;20028;-68
2022/01/26 05:50:51;;;;;;;87.00;25.45;;;;;;;;;;5037649;28;20427;-67
2022/01/26 05:53:20;;;;;;;94.25;27.67;;;;;;;;;;5033563;28;20030;-68
2022/01/26 05:55:55;;;;;;;83.47;23.80;;;;;;;;;;5048370;28;20033;-68
2022/01/26 05:58:21;;;;;;;94.28;25.95;;;;;;;;;;5041039;28;20086;-68
2022/01/26 06:00:46;;;;;;;88.53;27.27;;;;;;;;;;5037029;28;20033;-68
2022/01/26 06:03:12;;;;;;;94.57;26.48;;;;;;;;;;5026202;28;20041;-68
2022/01/26 06:05:38;;;;;;;91.43;25.85;;;;;;;;;;5023978;28;20512;-61
2022/01/26 06:08:03;;;;;;;97.40;27.08;;;;;;;;;;5030242;28;20499;-62
2022/01/26 06:10:29;;;;;;;84.93;25.45;;;;;;;;;;5029802;28;20030;-62
2022/01/26 06:12:54;;;;;;;81.05;24.75;;;;;;;;;;5030366;28;20287;-63
2022/01/26 06:15:20;;;;;;;93.82;27.88;;;;;;;;;;5034739;28;20076;-70
2022/01/26 06:17:47;;;;;;;90.82;26.38;;;;;;;;;;5034759;28;20156;-67
2022/01/26 06:20:12;;;;;;;94.68;26.73;;;;;;;;;;5034494;28;20034;-69
2022/01/26 06:22:38;;;;;;;94.45;26.48;;;;;;;;;;5035341;28;20040;-69
2022/01/26 06:25:06;;;;;;;90.57;26.27;;;;;;;;;;5034035;28;20112;-69
2022/01/26 06:27:36;;;;;;;88.80;26.67;;;;;;;;;;5054060;28;20021;-69
2022/01/26 06:30:04;;;;;;;86.15;24.20;;;;;;;;;;5055320;28;20569;-69
2022/01/26 06:32:29;;;;;;;94.40;25.88;;;;;;;;;;5055221;28;20124;-69
2022/01/26 06:34:55;;;;;;;94.55;26.50;;;;;;;;;;5054445;28;20165;-69
2022/01/26 06:37:21;;;;;;;95.00;26.77;;;;;;;;;;5053163;28;20053;-69
2022/01/26 06:39:46;;;;;;;84.38;22.75;;;;;;;;;;5054070;28;20112;-69
2022/01/26 06:42:15;;;;;;;88.15;23.50;;;;;;;;;;5053000;28;20028;-70
2022/01/26 06:44:52;;;;;;;98.82;27.23;;;;;;;;;;5053178;28;20029;-70
2022/01/26 06:47:33;;;;;;;89.55;26.42;;;;;;;;;;5036738;28;20037;-70
2022/01/26 06:49:59;;;;;;;84.25;24.58;;;;;;;;;;5034302;28;20033;-69
2022/01/26 06:52:24;;;;;;;98.13;26.38;;;;;;;;;;5053819;28;20037;-70
2022/01/26 06:54:50;;;;;;;99.80;26.75;;;;;;;;;;5040317;28;20487;-70
2022/01/26 06:57:15;;;;;;;92.13;25.15;;;;;;;;;;5033501;28;20026;-71
2022/01/26 06:59:41;;;;;;;101.32;27.33;;;;;;;;;;5032767;28;20033;-69
2022/01/26 07:02:06;;;;;;;74.72;22.52;;;;;;;;;;5035137;28;20037;-67
2022/01/26 07:04:32;;;;;;;100.05;26.73;;;;;;;;;;5035003;28;20034;-70
2022/01/26 07:06:57;;;;;;;88.22;24.48;;;;;;;;;;5033961;28;20460;-68
2022/01/26 07:09:22;;;;;;;78.30;24.55;;;;;;;;;;5035922;28;20041;-68
2022/01/26 07:11:48;;;;;;;76.95;22.65;;;;;;;;;;5033800;28;20037;-70
2022/01/26 07:14:25;;;;;;;84.70;23.55;;;;;;;;;;5041307;28;20051;-70
2022/01/26 07:20:25;;;;;;;84.28;23.05;;;;;;;;;;5050253;28;20459;-69
2022/01/26 07:22:40;;;;;;;88.05;25.23;;;;;;;;;;5039327;28;20041;-67
2022/01/26 07:25:06;;;;;;;66.05;19.45;;;;;;;;;;5012568;28;20476;-70
2022/01/26 07:27:31;;;;;;;107.88;27.63;;;;;;;;;;5031879;28;20032;-68
2022/01/26 07:29:59;;;;;;;97.80;25.42;;;;;;;;;;5029723;28;20025;-69
2022/01/26 07:32:26;;;;;;;93.57;26.92;;;;;;;;;;5017838;28;20041;-67
2022/01/26 07:34:51;;;;;;;100.25;25.88;;;;;;;;;;5025859;28;20042;-69
2022/01/26 07:37:18;;;;;;;88.63;24.33;;;;;;;;;;5023298;28;20038;-68
2022/01/26 07:39:48;;;;;;;105.28;27.13;;;;;;;;;;5013637;28;20491;-69
2022/01/26 07:42:14;;;;;;;102.32;26.25;;;;;;;;;;5037759;28;20044;-67
2022/01/26 07:44:40;;;;;;;96.03;26.30;;;;;;;;;;5050087;28;20028;-73
2022/01/26 07:47:06;;;;;;;96.25;26.83;;;;;;;;;;5021182;28;20029;-69
2022/01/26 07:49:32;;;;;;;98.90;27.00;;;;;;;;;;5031668;28;20113;-69
2022/01/26 07:51:57;;;;;;;94.47;26.63;;;;;;;;;;5048343;28;20841;-69
2022/01/26 07:54:24;;;;;;;100.03;26.85;;;;;;;;;;5040678;28;20091;-70
2022/01/26 07:56:49;;;;;;;104.38;28.05;;;;;;;;;;5043043;28;20040;-69
2022/01/26 07:59:14;;;;;;;100.13;27.92;;;;;;;;;;5035311;28;20549;-67
2022/01/26 08:01:40;;;;;;;107.57;28.85;;;;;;;;;;5031068;28;20108;-70
2022/01/26 08:04:05;;;;;;;100.28;29.17;;;;;;;;;;5033540;28;20368;-67
2022/01/26 08:06:31;;;;;;;101.53;27.80;;;;;;;;;;5053537;28;20116;-67
2022/01/26 08:08:56;;;;;;;103.95;28.67;;;;;;;;;;5052479;28;20108;-70
2022/01/26 08:11:24;;;;;;;101.32;28.15;;;;;;;;;;5032428;28;20070;-68
2022/01/26 08:13:50;;;;;;;97.88;27.88;;;;;;;;;;5032738;28;20032;-69
2022/01/26 08:16:15;;;;;;;107.78;28.52;;;;;;;;;;5025501;28;20050;-72
2022/01/26 08:18:40;;;;;;;102.00;27.23;;;;;;;;;;5028629;28;20436;-68
2022/01/26 08:21:06;;;;;;;98.75;26.45;;;;;;;;;;5030197;28;20029;-69
2022/01/26 08:23:35;;;;;;;109.32;29.67;;;;;;;;;;5032041;28;20025;-68
2022/01/26 08:26:00;;;;;;;103.05;29.75;;;;;;;;;;5032652;28;20048;-66
2022/01/26 08:28:31;;;;;;;108.43;28.83;;;;;;;;;;5043888;28;20029;-67
2022/01/26 08:30:56;;;;;;;;;;;;;;;;;;5028916;28;20087;-69
2022/01/26 08:33:22;;;;;;;61.80;20.38;;;;;;;;;;5049855;28;19952;-70
2022/01/26 08:35:47;;;;;;;92.85;24.95;;;;;;;;;;5050912;28;20036;-70
2022/01/26 08:38:13;;;;;;;102.75;28.35;;;;;;;;;;5053005;28;20489;-69
2022/01/26 08:40:39;;;;;;;100.88;26.80;;;;;;;;;;5049891;28;20029;-67
2022/01/26 08:43:04;;;;;;;92.93;28.15;;;;;;;;;;5052238;28;20522;-67
2022/01/26 08:45:31;;;;;;;83.93;25.48;;;;;;;;;;5040886;28;20029;-69
2022/01/26 08:47:56;;;;;;;110.03;30.15;;;;;;;;;;5031736;28;20033;-70
2022/01/26 08:50:22;;;;;;;108.07;29.15;;;;;;;;;;5032726;28;20459;-69
2022/01/26 08:52:47;;;;;;;97.50;27.30;;;;;;;;;;5031607;28;20475;-69
2022/01/26 08:55:13;;;;;;;105.07;28.27;;;;;;;;;;5031036;28;20034;-68
2022/01/26 08:57:39;;;;;;;100.47;27.10;;;;;;;;;;5032329;28;20030;-66
2022/01/26 09:00:08;;;;;;;102.38;28.35;;;;;;;;;;5030641;28;20033;-69
2022/01/26 09:02:34;;;;;;;103.45;27.10;;;;;;;;;;5033347;28;20059;-67
2022/01/26 09:05:00;;;;;;;118.80;29.75;;;;;;;;;;5031763;28;20048;-70
2022/01/26 09:07:25;;;;;;;96.60;25.08;;;;;;;;;;5031904;28;20048;-69
2022/01/26 09:09:51;;;;;;;72.95;19.85;;;;;;;;;;5031493;28;20409;-67
2022/01/26 09:12:19;;;;;;;101.30;25.98;;;;;;;;;;5032207;28;20539;-68
2022/01/26 09:14:46;;;;;;;119.90;29.77;;;;;;;;;;5035169;28;20030;-67
2022/01/26 09:17:12;;;;;;;67.85;20.00;;;;;;;;;;5012336;28;20072;-70
2022/01/26 09:19:41;;;;;;;104.80;26.70;;;;;;;;;;5028723;28;20034;-67
2022/01/26 09:22:11;;;;;;;72.80;20.65;;;;;;;;;;5011841;28;20037;-69
2022/01/26 09:24:38;;;;;;;77.00;20.73;;;;;;;;;;5035404;28;20425;-68
2022/01/26 09:27:06;;;;;;;71.63;22.42;;;;;;;;;;5051160;28;20025;-67
2022/01/26 09:29:32;;;;;;;103.20;27.17;;;;;;;;;;5046028;28;20113;-68
2022/01/26 09:31:58;;;;;;;105.50;26.98;;;;;;;;;;5031031;28;20451;-70
2022/01/26 09:34:28;;;;;;;110.25;28.33;;;;;;;;;;5043079;28;20033;-68
2022/01/26 09:36:53;;;;;;;90.10;22.55;;;;;;;;;;5051010;28;20029;-69
2022/01/26 09:39:21;;;;;;;101.93;26.38;;;;;;;;;;5051232;28;20383;-66
2022/01/26 09:41:48;;;;;;;105.68;25.90;;;;;;;;;;5051121;28;20041;-68
2022/01/26 09:44:15;;;;;;;82.90;22.92;;;;;;;;;;5039825;28;20053;-67
2022/01/26 09:46:41;;;;;;;114.15;27.67;;;;;;;;;;5016916;28;20033;-67
2022/01/26 09:49:07;;;;;;;106.35;28.30;;;;;;;;;;5030714;28;20139;-68
2022/01/26 09:51:40;;;;;;;113.63;29.92;;;;;;;;;;5033506;28;20047;-69
2022/01/26 09:54:14;;;;;;;115.93;28.00;;;;;;;;;;5051012;28;20048;-68
2022/01/26 09:56:41;;;;;;;87.78;23.48;;;;;;;;;;5050221;28;20414;-68
2022/01/26 09:59:06;;;;;;;106.38;27.65;;;;;;;;;;5050751;28;20031;-68
2022/01/26 10:01:44;;;;;;;94.90;25.45;;;;;;;;;;5029575;28;20033;-69
2022/01/26 10:04:22;;;;;;;77.70;21.33;;;;;;;;;;5051169;28;20033;-67
2022/01/26 10:18:16;;;;;;;99.85;26.48;;;;;;;;;;5027452;28;20053;-68
2022/01/26 10:20:48;;;;;;;108.90;27.75;;;;;;;;;;5031363;28;20136;-68
2022/01/26 10:23:17;;;;;;;115.05;26.90;;;;;;;;;;5051248;28;20037;-69
2022/01/26 10:25:45;;;;;;;89.97;22.90;;;;;;;;;;5048594;28;20068;-68
2022/01/26 10:28:13;;;;;;;117.22;29.38;;;;;;;;;;5030631;28;20030;-69
2022/01/26 10:30:48;;;;;;;123.38;31.17;;;;;;;;;;5016584;28;20057;-68
2022/01/26 10:33:15;;;;;;;115.70;28.70;;;;;;;;;;5011595;28;20026;-68
2022/01/26 10:35:41;;;;;;;97.20;23.15;;;;;;;;;;5026095;28;20029;-68
2022/01/26 10:38:06;;;;;;;110.43;26.98;;;;;;;;;;5030692;28;20513;-69
2022/01/26 10:40:32;;;;;;;126.65;29.05;;;;;;;;;;5043803;28;20029;-69
2022/01/26 10:43:06;;;;;;;112.47;27.17;;;;;;;;;;5032903;28;20060;-66
2022/01/26 10:48:26;;;;;;;93.93;26.83;;;;;;;;;;5030477;28;20475;-67
2022/01/26 10:53:45;;;;;;;134.43;31.25;;;;;;;;;;5031161;28;20037;-68
2022/01/26 10:56:11;;;;;;;83.40;23.15;;;;;;;;;;5031027;28;20211;-67
2022/01/26 10:58:36;;;;;;;113.03;27.55;;;;;;;;;;5029614;28;20042;-68
2022/01/26 11:01:04;;;;;;;133.88;31.45;;;;;;;;;;5033556;28;20033;-67
2022/01/26 11:03:29;;;;;;;122.43;30.45;;;;;;;;;;5033484;28;20038;-67
2022/01/26 11:05:55;;;;;;;134.32;31.92;;;;;;;;;;5034118;28;20026;-67
2022/01/26 11:08:22;;;;;;;134.68;33.38;;;;;;;;;;5034836;28;20057;-69
2022/01/26 11:10:48;;;;;;;139.27;32.88;;;;;;;;;;5033460;28;20052;-68
2022/01/26 11:13:29;;;;;;;119.45;29.30;;;;;;;;;;5032743;28;20443;-68
2022/01/26 11:16:07;;;;;;;;;;;;;;;;;;5032851;28;20056;-68
2022/01/26 11:18:51;;;;;;;94.13;23.85;;;;;;;;;;5034325;28;19921;-68
2022/01/26 11:21:30;;;;;;;128.70;29.15;;;;;;;;;;5034369;28;20057;-67
2022/01/26 11:24:07;;;;;;;120.72;30.45;;;;;;;;;;5033593;28;20037;-67
2022/01/26 11:26:33;;;;;;;82.05;24.05;;;;;;;;;;5033942;28;20029;-67
2022/01/26 11:28:59;;;;;;;121.38;28.42;;;;;;;;;;5028662;28;20078;-68
2022/01/26 11:31:25;;;;;;;136.88;32.75;;;;;;;;;;5034500;28;20073;-66
2022/01/26 11:33:51;;;;;;;139.93;31.98;;;;;;;;;;5032342;28;20036;-66
2022/01/26 11:36:18;;;;;;;103.32;26.88;;;;;;;;;;5034098;28;20034;-66
2022/01/26 11:46:54;;;;;;;72.75;22.88;;;;;;;;;;5034336;28;20045;-67
2022/01/26 11:49:39;;;;;;;112.80;28.90;;;;;;;;;;5033941;28;20099;-68
2022/01/26 11:52:06;;;;;;;109.15;26.90;;;;;;;;;;5033085;28;20038;-67
2022/01/26 11:54:51;;;;;;;120.45;29.17;;;;;;;;;;5033675;28;20459;-68
2022/01/26 11:57:18;;;;;;;96.60;25.33;;;;;;;;;;5040984;28;20029;-67
2022/01/26 11:59:56;;;;;;;116.32;28.65;;;;;;;;;;5028648;28;20057;-69
2022/01/26 12:02:34;;;;;;;124.85;31.13;;;;;;;;;;5014530;28;20033;-69
2022/01/26 12:05:05;;;;;;;107.13;26.13;;;;;;;;;;5013190;28;20045;-68
2022/01/26 12:07:30;;;;;;;114.90;27.95;;;;;;;;;;5027845;28;20037;-68
2022/01/26 12:09:56;;;;;;;86.30;25.52;;;;;;;;;;5031495;28;20094;-69
2022/01/26 12:12:24;;;;;;;98.30;26.85;;;;;;;;;;5045217;28;20033;-67
2022/01/26 12:15:10;;;;;;;119.57;28.25;;;;;;;;;;5043572;28;20041;-68
2022/01/26 12:17:46;;;;;;;104.57;26.60;;;;;;;;;;5047036;28;20044;-67
2022/01/26 12:34:38;;;;;;;107.35;28.00;;;;;;;;;;5018388;28;20180;-68
2022/01/26 12:42:52;;;;;;;84.65;23.95;;;;;;;;;;5018161;28;20357;-69
2022/01/26 12:45:01;;;;;;;95.05;23.63;;;;;;;;;;5040975;28;20045;-65
2022/01/26 12:47:28;;;;;;;92.85;22.83;;;;;;;;;;5020211;28;20034;-67
2022/01/26 12:49:57;;;;;;;93.65;24.75;;;;;;;;;;5016930;28;20025;-67
2022/01/26 12:52:23;;;;;;;66.38;19.45;;;;;;;;;;5033074;28;20120;-68
2022/01/26 12:54:49;;;;;;;82.78;23.05;;;;;;;;;;5032836;28;20037;-68
2022/01/26 12:57:15;;;;;;;72.13;20.77;;;;;;;;;;5031620;28;20493;-67
2022/01/26 12:59:40;;;;;;;100.43;24.95;;;;;;;;;;5032326;28;20037;-68
2022/01/26 13:02:06;;;;;;;99.70;25.70;;;;;;;;;;5031647;28;20036;-67
2022/01/26 13:04:31;;;;;;;91.40;24.60;;;;;;;;;;5032424;28;20391;-68
2022/01/26 13:06:57;;;;;;;90.20;23.10;;;;;;;;;;5030659;28;20025;-68
2022/01/26 13:09:28;;;;;;;81.90;21.88;;;;;;;;;;5032037;28;20041;-67
2022/01/26 13:11:55;;;;;;;79.00;19.90;;;;;;;;;;5032702;28;20152;-69
2022/01/26 13:14:33;;;;;;;63.17;18.38;;;;;;;;;;5030829;28;20033;-69
2022/01/26 13:17:06;;;;;;;65.78;18.17;;;;;;;;;;5011948;28;20061;-69
2022/01/26 13:19:40;;;;;;;75.78;19.58;;;;;;;;;;5013220;28;20085;-70
2022/01/26 13:52:19;;;;;;;72.05;20.40;;;;;;;;;;5051639;28;20104;-68
2022/01/26 13:59:44;;;;;;;75.85;23.95;;;;;;;;;;5042721;28;20482;-68
2022/01/26 14:02:10;;;;;;;85.20;22.35;;;;;;;;;;5030766;28;20036;-66
2022/01/26 14:04:36;;;;;;;78.70;21.67;;;;;;;;;;5030304;28;20037;-66
2022/01/26 14:07:01;;;;;;;71.70;20.25;;;;;;;;;;5030613;28;20441;-68
2022/01/26 14:09:26;;;;;;;70.60;20.17;;;;;;;;;;5050659;28;20036;-66
2022/01/26 14:11:52;;;;;;;86.88;23.08;;;;;;;;;;5050350;28;20024;-66
2022/01/26 14:14:31;;;;;;;76.32;23.00;;;;;;;;;;5043535;28;20029;-67
2022/01/26 14:16:58;;;;;;;59.47;18.05;;;;;;;;;;5012607;28;20046;-66
2022/01/26 14:27:25;;;;;;;72.50;20.65;;;;;;;;;;5030423;28;20040;-67
2022/01/26 14:51:08;;;;;;;69.60;19.52;;;;;;;;;;5036218;28;20036;-67
2022/01/26 14:56:15;;;;;;;71.63;21.67;;;;;;;;;;5029568;28;20079;-67
2022/01/26 15:42:14;;;;;;;70.20;20.67;;;;;;;;;;5014290;28;20510;-68
2022/01/26 15:50:24;;;;;;;72.15;21.67;;;;;;;;;;5034378;28;20091;-69
2022/01/26 15:58:09;;;;;;;65.05;22.17;;;;;;;;;;5014646;28;20072;-68
2022/01/26 16:06:12;;;;;;;71.35;20.60;;;;;;;;;;5039517;28;20106;-67
2022/01/26 16:16:48;;;;;;;70.13;18.17;;;;;;;;;;5033306;28;20533;-69
2022/01/26 17:02:56;;;;;;;63.10;19.48;;;;;;;;;;5031640;28;20505;-65
2022/01/26 18:05:55;;;;;;;87.07;23.00;;;;;;;;;;5012197;28;20040;-63
2022/01/26 18:14:19;;;;;;;85.07;25.08;;;;;;;;;;5015391;28;20113;-64
2022/01/26 18:27:00;;;;;;;89.22;24.02;;;;;;;;;;5011896;28;20083;-65
2022/01/26 18:32:24;;;;;;;78.93;21.83;;;;;;;;;;5011146;28;20056;-66
2022/01/26 18:50:54;;;;;;;69.07;21.90;;;;;;;;;;5017824;28;20041;-66
2022/01/26 18:53:20;;;;;;;73.13;20.92;;;;;;;;;;5027083;28;20034;-66
2022/01/26 18:55:45;;;;;;;113.97;28.42;;;;;;;;;;5042846;28;20029;-66
2022/01/26 18:58:11;;;;;;;88.80;23.48;;;;;;;;;;5031639;28;20033;-70
2022/01/26 19:00:37;;;;;;;111.90;28.85;;;;;;;;;;5045060;28;20024;-67
2022/01/26 19:03:03;;;;;;;71.82;20.17;;;;;;;;;;5037093;28;20037;-68
2022/01/26 19:05:29;;;;;;;76.68;22.20;;;;;;;;;;5030429;28;20253;-68
2022/01/26 19:07:56;;;;;;;108.60;26.73;;;;;;;;;;5028886;28;20155;-68
2022/01/26 19:10:22;;;;;;;96.18;25.48;;;;;;;;;;5029566;28;20036;-68
2022/01/26 19:12:49;;;;;;;97.85;24.77;;;;;;;;;;5014518;28;20030;-67
2022/01/26 19:15:17;;;;;;;108.90;28.27;;;;;;;;;;5028547;28;20061;-69
2022/01/26 19:17:58;;;;;;;99.63;25.55;;;;;;;;;;5039245;28;20410;-67
2022/01/26 19:23:04;;;;;;;114.60;26.77;;;;;;;;;;5054292;28;20045;-67
2022/01/26 19:25:35;;;;;;;67.88;19.30;;;;;;;;;;5018704;28;20169;-67
2022/01/26 19:28:13;;;;;;;77.05;23.08;;;;;;;;;;5034553;28;20096;-67
2022/01/26 19:52:16;;;;;;;102.10;25.95;;;;;;;;;;5037726;28;20040;-66
2022/01/26 19:54:46;;;;;;;116.40;29.65;;;;;;;;;;5040213;28;20029;-66
2022/01/26 19:57:11;;;;;;;119.60;29.98;;;;;;;;;;5033898;28;20070;-68
2022/01/26 19:59:37;;;;;;;82.85;24.30;;;;;;;;;;5034022;28;20076;-66
2022/01/26 20:02:04;;;;;;;114.40;27.23;;;;;;;;;;5042225;28;20053;-65
2022/01/26 20:04:32;;;;;;;95.47;25.35;;;;;;;;;;5012841;28;20033;-67
2022/01/26 20:07:03;;;;;;;112.40;28.48;;;;;;;;;;5017959;28;20127;-66
2022/01/26 20:09:34;;;;;;;76.25;20.63;;;;;;;;;;5031161;28;20048;-67
2022/01/26 20:12:04;;;;;;;86.20;24.38;;;;;;;;;;5034767;28;20038;-66
2022/01/26 20:14:32;;;;;;;94.93;25.15;;;;;;;;;;5049037;28;20022;-65
2022/01/26 20:17:06;;;;;;;79.30;22.33;;;;;;;;;;5032950;28;20045;-66
2022/01/26 20:19:33;;;;;;;100.07;26.80;;;;;;;;;;5038743;28;20024;-66
2022/01/26 20:21:59;;;;;;;98.88;25.35;;;;;;;;;;5040963;28;20495;-65
2022/01/26 20:24:25;;;;;;;78.10;22.65;;;;;;;;;;5047532;28;20106;-66
2022/01/26 20:26:52;;;;;;;64.60;17.45;;;;;;;;;;5032428;28;20467;-66
2022/01/26 20:29:21;;;;;;;87.15;24.52;;;;;;;;;;5030506;28;20033;-67
2022/01/26 20:31:47;;;;;;;65.90;17.67;;;;;;;;;;5042762;28;20044;-66
2022/01/26 20:34:15;;;;;;;85.15;20.80;;;;;;;;;;5039000;28;20034;-67
2022/01/26 20:36:42;;;;;;;93.22;21.98;;;;;;;;;;5020373;28;20451;-65
2022/01/26 20:39:08;;;;;;;78.40;21.65;;;;;;;;;;5033026;28;20159;-67
2022/01/26 20:41:33;;;;;;;72.35;19.88;;;;;;;;;;5031886;28;20240;-68
2022/01/26 20:43:59;;;;;;;76.57;22.08;;;;;;;;;;5032889;28;20368;-65
2022/01/26 20:46:25;;;;;;;104.53;25.17;;;;;;;;;;5027850;28;20478;-66
2022/01/26 20:48:50;;;;;;;59.75;19.55;;;;;;;;;;5044162;28;20060;-65
2022/01/26 20:51:16;;;;;;;78.07;22.88;;;;;;;;;;5030788;28;20040;-69
2022/01/26 20:53:43;;;;;;;91.60;24.85;;;;;;;;;;5032315;28;20081;-66
2022/01/26 20:56:09;;;;;;;93.95;22.23;;;;;;;;;;5051801;28;20095;-66
2022/01/26 20:58:34;;;;;;;50.33;19.83;;;;;;;;;;5039252;28;20033;-66
2022/01/26 21:01:00;;;;;;;82.47;22.40;;;;;;;;;;5051411;28;20037;-66
2022/01/26 21:03:25;;;;;;;72.38;20.38;;;;;;;;;;5043165;28;20104;-67
2022/01/26 21:05:51;;;;;;;62.40;17.08;;;;;;;;;;5034952;28;20117;-66
2022/01/26 21:08:21;;;;;;;56.42;19.83;;;;;;;;;;5031314;28;20040;-70
2022/01/26 21:10:51;;;;;;;81.80;23.67;;;;;;;;;;5028199;28;20129;-67
2022/01/26 21:13:18;;;;;;;59.20;18.60;;;;;;;;;;5016006;28;20270;-70
2022/01/26 21:15:44;;;;;;;69.38;22.58;;;;;;;;;;5049819;28;20052;-66
2022/01/26 21:18:10;;;;;;;62.33;18.40;;;;;;;;;;5050784;28;20047;-66
2022/01/26 21:20:37;;;;;;;49.90;16.85;;;;;;;;;;5046814;28;20078;-65
2022/01/26 21:23:04;;;;;;;85.22;23.40;;;;;;;;;;5032966;28;20041;-66
2022/01/26 21:25:29;;;;;;;83.88;22.98;;;;;;;;;;5050621;28;20033;-66
2022/01/26 21:27:54;;;;;;;82.65;23.52;;;;;;;;;;5026782;28;20036;-66
2022/01/26 21:30:20;;;;;;;65.15;19.17;;;;;;;;;;5031700;28;20103;-69